Time;durP1;ratioP1;P1;durP2;ratioP2;P2;SDS_P1;SDS_P2;PMS_P1;PMS_P2;Temp;Humidity;BMP_temperature;BMP_pressure;BME280_temperature;BME280_humidity;BME280_pressure;Samples;Min_cycle;Max_cycle;Signal;HPM_P1;HPM_P2
2019/10/30 00:00:04;;;;;;;15.8;14.1;;;;;;;6.97;94.60449;966.8942;;;;
2019/10/30 00:02:29;;;;;;;15.2;13.1;;;;;;;7.01;93.00293;966.8705;;;;
2019/10/30 00:04:54;;;;;;;16.5;13.9;;;;;;;6.91;93.84863;966.8441;;;;
2019/10/30 00:07:19;;;;;;;17.9;14.4;;;;;;;6.95;93.31152;966.8412;;;;
2019/10/30 00:09:44;;;;;;;15.8;14.1;;;;;;;6.8;93.51953;966.8217;;;;
2019/10/30 00:12:10;;;;;;;15.6;14;;;;;;;6.86;92.80078;966.8704;;;;
2019/10/30 00:14:35;;;;;;;15.5;13.9;;;;;;;6.93;94.07227;966.8792;;;;
2019/10/30 00:17:00;;;;;;;16.6;14.9;;;;;;;6.95;92.99121;966.928;;;;
2019/10/30 00:19:25;;;;;;;17.6;14.7;;;;;;;6.86;92.73242;967.0301;;;;
2019/10/30 00:21:50;;;;;;;17.2;14.1;;;;;;;6.82;92.89551;966.954;;;;
2019/10/30 00:24:15;;;;;;;16.7;14.1;;;;;;;6.92;93.39453;966.9905;;;;
2019/10/30 00:26:40;;;;;;;16.5;14.8;;;;;;;6.86;92.73242;967.137;;;;
2019/10/30 00:29:05;;;;;;;15.3;13.7;;;;;;;7.01;92.26074;967.1379;;;;
2019/10/30 00:31:30;;;;;;;16.8;14.5;;;;;;;6.93;93.77344;967.1772;;;;
2019/10/30 00:33:55;;;;;;;19.6;15.3;;;;;;;6.81;93.45117;967.1306;;;;
2019/10/30 00:36:21;;;;;;;17.3;14.6;;;;;;;6.88;93.58105;967.1547;;;;
2019/10/30 00:38:46;;;;;;;18.4;14.6;;;;;;;6.93;93.24023;967.073;;;;
2019/10/30 00:41:11;;;;;;;17.4;14.9;;;;;;;6.86;92.92676;967.0301;;;;
2019/10/30 00:43:36;;;;;;;15.8;14.2;;;;;;;6.95;92.92285;967.0114;;;;
2019/10/30 00:46:01;;;;;;;18.7;14.6;;;;;;;6.85;92.90332;966.983;;;;
2019/10/30 00:48:26;;;;;;;17.5;14.6;;;;;;;6.91;93.24609;967.1096;;;;
2019/10/30 00:50:51;;;;;;;16.4;14;;;;;;;6.87;92.88281;967.0994;;;;
2019/10/30 00:53:16;;;;;;;16.7;14.7;;;;;;;6.86;92.61816;967.155;;;;
2019/10/30 00:55:41;;;;;;;16.5;14.6;;;;;;;6.81;93.26855;967.0989;;;;
2019/10/30 00:58:06;;;;;;;16.4;14.7;;;;;;;7.07;93.25684;967.1174;;;;
2019/10/30 01:00:32;;;;;;;16.8;13.7;;;;;;;6.99;92.13379;967.1945;;;;
2019/10/30 01:02:57;;;;;;;15.4;13.8;;;;;;;6.91;92.49121;967.2021;;;;
2019/10/30 01:05:22;;;;;;;16.6;14.3;;;;;;;6.82;92.2666;967.169;;;;
2019/10/30 01:07:47;;;;;;;18.5;13.9;;;;;;;6.76;92.75488;967.0803;;;;
2019/10/30 01:10:12;;;;;;;15.4;13.8;;;;;;;6.74;93.37793;967.0853;;;;
2019/10/30 01:12:37;;;;;;;15.9;13.5;;;;;;;6.75;93.29102;967.0826;;;;
2019/10/30 01:15:02;;;;;;;17.3;14;;;;;;;6.72;93.36523;967.0554;;;;
2019/10/30 01:17:27;;;;;;;15.2;13.3;;;;;;;6.66;93.57715;967.1179;;;;
2019/10/30 01:19:52;;;;;;;16;13.7;;;;;;;6.69;93.64063;967.1063;;;;
2019/10/30 01:22:17;;;;;;;15.2;13.6;;;;;;;6.75;93.57617;967.0881;;;;
2019/10/30 01:24:42;;;;;;;18.8;14;;;;;;;6.72;93.5459;967.1531;;;;
2019/10/30 01:27:08;;;;;;;15.9;14.2;;;;;;;6.79;93.13867;967.1526;;;;
2019/10/30 01:29:33;;;;;;;15.8;13.6;;;;;;;6.84;93.13965;967.1028;;;;
2019/10/30 01:31:58;;;;;;;14.7;12.4;;;;;;;6.79;92.12402;967.1218;;;;
2019/10/30 01:34:23;;;;;;;14.7;13.2;;;;;;;6.62;92.8418;967.1505;;;;
2019/10/30 01:36:48;;;;;;;14.8;12.7;;;;;;;6.8;92.88086;967.1036;;;;
2019/10/30 01:39:13;;;;;;;14;12.5;;;;;;;6.72;92.84961;967.0948;;;;
2019/10/30 01:41:38;;;;;;;16.7;13.1;;;;;;;6.81;93.41699;967.0397;;;;
2019/10/30 01:44:03;;;;;;;15.7;12.8;;;;;;;6.73;92.06641;967.0352;;;;
2019/10/30 01:48:54;;;;;;;18.8;13.3;;;;;;;6.57;93.14941;967.0046;;;;
2019/10/30 01:51:19;;;;;;;16.9;13.3;;;;;;;6.54;93.7002;967.0678;;;;
2019/10/30 01:53:44;;;;;;;16.4;12.9;;;;;;;6.73;93.87988;967.069;;;;
2019/10/30 01:56:09;;;;;;;16.1;13.4;;;;;;;6.6;93.23535;967.0463;;;;
2019/10/30 01:58:35;;;;;;;15.6;12.4;;;;;;;6.67;94.20898;967.0491;;;;
2019/10/30 02:01:00;;;;;;;16.4;12.5;;;;;;;6.46;93.46582;967.0122;;;;
2019/10/30 02:03:25;;;;;;;15.4;12.6;;;;;;;6.63;93.44629;967.0356;;;;
2019/10/30 02:05:50;;;;;;;14.6;12.8;;;;;;;6.56;93.5918;967.0748;;;;
2019/10/30 02:08:15;;;;;;;14.2;12.4;;;;;;;6.5;93.40723;967.0891;;;;
2019/10/30 02:10:41;;;;;;;15.6;12.9;;;;;;;6.42;94.75781;966.9928;;;;
2019/10/30 02:13:06;;;;;;;19.2;14.5;;;;;;;6.34;94.60352;966.9417;;;;
2019/10/30 02:15:31;;;;;;;16.6;13.9;;;;;;;6.51;94.85742;967.0097;;;;
2019/10/30 02:17:56;;;;;;;17.6;14.3;;;;;;;6.44;94.67285;966.9793;;;;
2019/10/30 02:20:21;;;;;;;17.7;14.7;;;;;;;6.39;95.32129;967.0334;;;;
2019/10/30 02:22:46;;;;;;;17.1;15.3;;;;;;;6.43;95.83105;967.0577;;;;
2019/10/30 02:25:11;;;;;;;17.2;15.4;;;;;;;6.36;95.40723;967.0055;;;;
2019/10/30 02:27:37;;;;;;;17.9;14.8;;;;;;;6.36;95.37305;967.0022;;;;
2019/10/30 02:30:12;;;;;;;17.2;15;;;;;;;6.44;95.73047;967.0511;;;;
2019/10/30 02:32:37;;;;;;;17.4;14.5;;;;;;;6.51;94.90527;966.9825;;;;
2019/10/30 02:34:53;;;;;;;17;15;;;;;;;6.28;95.41211;966.9866;;;;
2019/10/30 02:37:18;;;;;;;17.7;15.3;;;;;;;6.33;95.9209;966.9139;;;;
2019/10/30 02:39:43;;;;;;;16.8;13.8;;;;;;;6.34;94.5459;966.9224;;;;
2019/10/30 02:42:08;;;;;;;15.4;13.8;;;;;;;6.35;94.78711;966.9022;;;;
2019/10/30 02:44:33;;;;;;;16.4;13.7;;;;;;;6.48;94.80371;966.9266;;;;
2019/10/30 02:46:58;;;;;;;15.6;13.9;;;;;;;6.35;94.38672;966.9441;;;;
2019/10/30 02:49:23;;;;;;;14.6;12.9;;;;;;;6.37;93.9502;966.9445;;;;
2019/10/30 02:51:48;;;;;;;15.5;13;;;;;;;6.42;94.43848;966.9102;;;;
2019/10/30 02:54:14;;;;;;;19;12.6;;;;;;;6.51;93.21582;966.9053;;;;
2019/10/30 02:56:39;;;;;;;15.1;13.1;;;;;;;6.42;94.16504;966.9214;;;;
2019/10/30 02:59:05;;;;;;;15.2;13.4;;;;;;;6.44;94.88867;966.9162;;;;
2019/10/30 03:01:30;;;;;;;14.9;13.1;;;;;;;6.52;93.85645;966.8862;;;;
2019/10/30 03:03:56;;;;;;;17.8;13.7;;;;;;;6.5;95.00195;966.8547;;;;
2019/10/30 03:06:21;;;;;;;13.7;12.3;;;;;;;6.69;93.35547;966.8131;;;;
2019/10/30 03:08:46;;;;;;;15.1;13.3;;;;;;;6.6;93.18945;966.7767;;;;
2019/10/30 03:11:11;;;;;;;14.4;12.9;;;;;;;6.67;93.26172;966.7252;;;;
2019/10/30 03:13:37;;;;;;;15.4;13.5;;;;;;;6.45;94.26172;966.7854;;;;
2019/10/30 03:16:02;;;;;;;15.7;14;;;;;;;6.55;94.48926;966.7718;;;;
2019/10/30 03:18:28;;;;;;;17.2;14.1;;;;;;;6.53;94.46191;966.7534;;;;
2019/10/30 03:20:53;;;;;;;15.5;13.9;;;;;;;6.41;94.40234;966.7568;;;;
2019/10/30 03:23:19;;;;;;;16.7;13.9;;;;;;;6.51;94.58398;966.8326;;;;
2019/10/30 03:25:44;;;;;;;18.3;15.9;;;;;;;6.36;94.75488;966.9;;;;
2019/10/30 03:28:09;;;;;;;17.2;15.3;;;;;;;6.33;94.63574;966.9506;;;;
2019/10/30 03:30:34;;;;;;;17.6;15.9;;;;;;;6.29;95.65332;966.9804;;;;
2019/10/30 03:32:59;;;;;;;18.1;16.1;;;;;;;6.4;95.61816;966.9932;;;;
2019/10/30 03:35:25;;;;;;;19.4;16.7;;;;;;;6.29;97.05273;967.0408;;;;
2019/10/30 03:37:50;;;;;;;18.4;16.4;;;;;;;6.38;95.85352;967.0086;;;;
2019/10/30 03:40:15;;;;;;;20.1;18;;;;;;;6.38;95.85352;966.8995;;;;
2019/10/30 03:42:40;;;;;;;21.7;19.5;;;;;;;6.37;95.87598;966.8572;;;;
2019/10/30 03:45:05;;;;;;;23.6;20.7;;;;;;;6.29;96.96094;966.7902;;;;
2019/10/30 03:47:30;;;;;;;24.3;21.7;;;;;;;6.21;97.10254;966.7887;;;;
2019/10/30 03:49:56;;;;;;;24.5;21.9;;;;;;;6.27;96.95703;966.7678;;;;
2019/10/30 03:52:21;;;;;;;26;22.3;;;;;;;6.35;96.97559;966.7734;;;;
2019/10/30 03:54:46;;;;;;;25.1;21.8;;;;;;;6.37;97.31055;966.7267;;;;
2019/10/30 03:57:11;;;;;;;27.2;24.2;;;;;;;6.28;98.08984;966.7299;;;;
2019/10/30 03:59:37;;;;;;;27.2;24.3;;;;;;;6.28;97.33496;966.7043;;;;
2019/10/30 04:02:27;;;;;;;28.9;25.8;;;;;;;6.12;98.41504;966.7899;;;;
2019/10/30 04:04:52;;;;;;;29.2;26;;;;;;;6.13;97.90625;966.9061;;;;
2019/10/30 04:07:23;;;;;;;30.4;26.9;;;;;;;6.08;98.66895;966.9483;;;;
2019/10/30 04:09:45;;;;;;;30.6;27.5;;;;;;;6.01;98.58594;967.0172;;;;
2019/10/30 04:12:10;;;;;;;32.5;29;;;;;;;6.02;99.5791;967.0151;;;;
2019/10/30 04:14:35;;;;;;;30.9;27.7;;;;;;;6.1;98.16211;966.9867;;;;
2019/10/30 04:17:00;;;;;;;31.9;28.5;;;;;;;6.06;98.70801;966.9885;;;;
2019/10/30 04:19:25;;;;;;;31.5;28.3;;;;;;;6;98.47949;967.0284;;;;
2019/10/30 04:21:50;;;;;;;31.3;28;;;;;;;5.98;98.16797;967.0158;;;;
2019/10/30 04:24:16;;;;;;;33;29.4;;;;;;;6.06;98.83594;967.0842;;;;
2019/10/30 04:26:41;;;;;;;30.8;27.7;;;;;;;6.14;97.62207;967.1309;;;;
2019/10/30 04:29:07;;;;;;;31.2;27.9;;;;;;;6.1;97.85449;967.1082;;;;
2019/10/30 04:31:32;;;;;;;34;30.4;;;;;;;5.99;98.72559;967.125;;;;
2019/10/30 04:33:58;;;;;;;33.6;29.4;;;;;;;5.96;98.25488;967.0583;;;;
2019/10/30 04:36:23;;;;;;;32.8;29.4;;;;;;;6.08;98.50977;967.0641;;;;
2019/10/30 04:38:48;;;;;;;32.2;28.7;;;;;;;6.02;97.75684;967.1632;;;;
2019/10/30 04:41:14;;;;;;;32.1;28.8;;;;;;;6.09;97.49609;967.1161;;;;
2019/10/30 04:43:40;;;;;;;32.4;28.6;;;;;;;6.13;97.14355;967.1042;;;;
2019/10/30 04:46:05;;;;;;;32.6;29.3;;;;;;;6.07;97.91504;967.1022;;;;
2019/10/30 04:48:30;;;;;;;33.7;29.7;;;;;;;5.92;97.91406;967.0849;;;;
2019/10/30 04:50:55;;;;;;;34.4;29.4;;;;;;;5.88;97.62109;967.0992;;;;
2019/10/30 04:53:23;;;;;;;34;30.3;;;;;;;5.87;97.7998;967.0307;;;;
2019/10/30 04:55:48;;;;;;;33.3;29.8;;;;;;;5.89;98.56641;967.0137;;;;
2019/10/30 04:58:13;;;;;;;34.6;30.9;;;;;;;5.92;98.41504;967.0388;;;;
2019/10/30 05:00:39;;;;;;;33;29.4;;;;;;;5.94;98.30566;967.0165;;;;
2019/10/30 05:03:04;;;;;;;34;30;;;;;;;5.92;98.3584;967.0219;;;;
2019/10/30 05:05:29;;;;;;;33.5;29.8;;;;;;;5.93;98.36035;967.0067;;;;
2019/10/30 05:07:54;;;;;;;33.4;29.7;;;;;;;5.92;97.98242;967.0105;;;;
2019/10/30 05:10:19;;;;;;;34.9;30.3;;;;;;;5.87;97.92676;967.0536;;;;
2019/10/30 05:12:44;;;;;;;33.3;29.7;;;;;;;5.86;98.23242;967.0492;;;;
2019/10/30 05:15:09;;;;;;;34;30.2;;;;;;;5.87;97.59668;967.0665;;;;
2019/10/30 05:17:40;;;;;;;33.7;30;;;;;;;5.77;97.81152;967.0095;;;;
2019/10/30 05:20:00;;;;;;;34.6;30.8;;;;;;;5.74;98.33984;967.0165;;;;
2019/10/30 05:22:24;;;;;;;35;30.9;;;;;;;5.67;98.21875;967.0078;;;;
2019/10/30 05:24:49;;;;;;;35.5;31.2;;;;;;;5.73;98.53125;967.0175;;;;
2019/10/30 05:27:14;;;;;;;35.2;31;;;;;;;5.74;98.63574;967.0008;;;;
2019/10/30 05:29:40;;;;;;;32.4;28.8;;;;;;;5.95;97.38574;967.0126;;;;
2019/10/30 05:32:05;;;;;;;33.2;29.6;;;;;;;5.8;97.48926;966.9456;;;;
2019/10/30 05:34:30;;;;;;;35;30.9;;;;;;;5.76;98.03711;966.9645;;;;
2019/10/30 05:36:55;;;;;;;33.4;29.1;;;;;;;5.75;97.19238;967.0008;;;;
2019/10/30 05:39:26;;;;;;;33.6;30;;;;;;;5.78;98.24805;966.9942;;;;
2019/10/30 05:41:45;;;;;;;34.3;29.7;;;;;;;5.69;97.44043;966.9888;;;;
2019/10/30 05:44:10;;;;;;;32;28.4;;;;;;;5.87;97.17578;966.9768;;;;
2019/10/30 05:46:35;;;;;;;33.2;29.6;;;;;;;5.76;97.01465;967.0457;;;;
2019/10/30 05:49:01;;;;;;;32.1;28.7;;;;;;;5.77;97.40137;967.0264;;;;
2019/10/30 05:51:26;;;;;;;33.7;30.1;;;;;;;5.76;97.52441;967.0259;;;;
2019/10/30 05:53:51;;;;;;;32.8;28.6;;;;;;;5.89;97.20215;967.0567;;;;
2019/10/30 05:56:17;;;;;;;34.3;29.7;;;;;;;5.8;97.47754;967.0714;;;;
2019/10/30 05:58:42;;;;;;;32.4;28.9;;;;;;;5.8;97.54395;967.0789;;;;
2019/10/30 06:01:08;;;;;;;32;28;;;;;;;6;97.16992;967.1516;;;;
2019/10/30 06:03:33;;;;;;;32.3;28.8;;;;;;;5.83;97.66602;967.2253;;;;
2019/10/30 06:05:58;;;;;;;33;29.4;;;;;;;5.88;97.76758;967.2106;;;;
2019/10/30 06:08:23;;;;;;;32.3;28.8;;;;;;;5.91;97.35449;967.2576;;;;
2019/10/30 06:10:49;;;;;;;31.7;28.2;;;;;;;5.94;96.79102;967.2974;;;;
2019/10/30 06:13:14;;;;;;;34;29.3;;;;;;;5.83;98.07813;967.2848;;;;
2019/10/30 06:15:39;;;;;;;31.5;28.2;;;;;;;5.93;97.46289;967.3489;;;;
2019/10/30 06:18:04;;;;;;;31.7;28.3;;;;;;;5.92;97.81152;967.3688;;;;
2019/10/30 06:20:53;;;;;;;31.4;28;;;;;;;6.08;96.28809;967.4088;;;;
2019/10/30 06:22:55;;;;;;;29.9;26.8;;;;;;;6.15;96.4541;967.4244;;;;
2019/10/30 06:25:24;;;;;;;31.8;28.3;;;;;;;5.99;96.89453;967.4601;;;;
2019/10/30 06:27:49;;;;;;;32.2;28.7;;;;;;;5.84;96.98535;967.5331;;;;
2019/10/30 06:30:14;;;;;;;30.8;27.6;;;;;;;5.97;96.37793;967.5594;;;;
2019/10/30 06:32:39;;;;;;;31.3;27.9;;;;;;;6.01;96.63867;967.5689;;;;
2019/10/30 06:35:04;;;;;;;29.5;26.2;;;;;;;6.09;96.91699;967.613;;;;
2019/10/30 06:37:29;;;;;;;30.5;26.8;;;;;;;6.12;95.58984;967.5634;;;;
2019/10/30 06:39:55;;;;;;;30.8;24.9;;;;;;;6.26;94.9043;967.678;;;;
2019/10/30 06:42:20;;;;;;;32.6;26.8;;;;;;;6.1;95.95313;967.6534;;;;
2019/10/30 06:44:45;;;;;;;29.2;26.1;;;;;;;6.18;96.01465;967.6813;;;;
2019/10/30 06:47:10;;;;;;;32.3;27.9;;;;;;;6.11;95.90723;967.6563;;;;
2019/10/30 06:49:35;;;;;;;32.6;28.3;;;;;;;6.02;96.7207;967.6794;;;;
2019/10/30 06:52:00;;;;;;;30;26.9;;;;;;;6.26;96.05469;967.6731;;;;
2019/10/30 06:54:25;;;;;;;29.8;26.6;;;;;;;6.2;95.81543;967.7099;;;;
2019/10/30 06:56:50;;;;;;;29.6;26.5;;;;;;;6.17;95.5;967.7482;;;;
2019/10/30 06:59:15;;;;;;;33.3;27.3;;;;;;;6.13;96.27734;967.78;;;;
2019/10/30 07:01:40;;;;;;;29.2;26;;;;;;;6.11;95.84082;967.84;;;;
2019/10/30 07:04:05;;;;;;;29.7;26.5;;;;;;;6.16;96.23828;967.7903;;;;
2019/10/30 07:06:30;;;;;;;29.2;26.1;;;;;;;6.31;94.96191;967.817;;;;
2019/10/30 07:09:01;;;;;;;28.4;25.6;;;;;;;6.33;94.80664;967.7979;;;;
2019/10/30 07:11:20;;;;;;;30.9;27.5;;;;;;;6.29;94.95801;967.8546;;;;
2019/10/30 07:13:45;;;;;;;28.7;25.6;;;;;;;6.51;94.32129;967.8947;;;;
2019/10/30 07:16:11;;;;;;;30.8;27.2;;;;;;;6.36;94.61816;967.9109;;;;
2019/10/30 07:18:36;;;;;;;30.8;27.3;;;;;;;6.29;95.33203;967.9604;;;;
2019/10/30 07:21:01;;;;;;;31.6;27.2;;;;;;;6.28;95.33008;967.886;;;;
2019/10/30 07:23:26;;;;;;;30.1;26.6;;;;;;;6.44;94.68164;967.9189;;;;
2019/10/30 07:25:51;;;;;;;29.1;25.7;;;;;;;6.44;94.50098;967.9418;;;;
2019/10/30 07:28:16;;;;;;;28.6;25.4;;;;;;;6.49;93.88379;967.9751;;;;
2019/10/30 07:30:42;;;;;;;29;26.1;;;;;;;6.39;94.4209;967.9586;;;;
2019/10/30 07:33:07;;;;;;;28.5;25.4;;;;;;;6.42;94.39258;967.9497;;;;
2019/10/30 07:35:32;;;;;;;28.5;25.4;;;;;;;6.59;93.37891;967.9464;;;;
2019/10/30 07:37:57;;;;;;;28;25.1;;;;;;;6.65;92.36621;967.9435;;;;
2019/10/30 07:40:22;;;;;;;26.6;23.5;;;;;;;6.72;92.09863;967.9827;;;;
2019/10/30 07:42:47;;;;;;;28.1;25.3;;;;;;;6.56;91.98242;968.0631;;;;
2019/10/30 07:45:12;;;;;;;27.8;24.8;;;;;;;6.59;91.30566;968.0558;;;;
2019/10/30 07:47:37;;;;;;;26.4;23.7;;;;;;;6.75;90.81543;968.0884;;;;
2019/10/30 07:50:03;;;;;;;29.3;25.1;;;;;;;6.78;90.72949;968.1221;;;;
2019/10/30 07:52:28;;;;;;;27.6;24.5;;;;;;;6.86;90.02832;968.1066;;;;
2019/10/30 07:54:53;;;;;;;27.5;24.8;;;;;;;6.76;90.12109;968.1702;;;;
2019/10/30 07:57:18;;;;;;;27.1;24.3;;;;;;;6.68;90.05859;968.2414;;;;
2019/10/30 07:59:43;;;;;;;26.8;24.1;;;;;;;6.75;90.19922;968.241;;;;
2019/10/30 08:02:08;;;;;;;27.4;24.5;;;;;;;6.66;90.86523;968.2017;;;;
2019/10/30 08:04:33;;;;;;;28.4;25.2;;;;;;;6.84;90.18262;968.2238;;;;
2019/10/30 08:06:58;;;;;;;27;24.2;;;;;;;6.89;90.18262;968.2539;;;;
2019/10/30 08:09:28;;;;;;;26.6;23.9;;;;;;;6.84;89.47461;968.1923;;;;
2019/10/30 08:12:12;;;;;;;25.8;23.2;;;;;;;6.99;88.9375;968.244;;;;
2019/10/30 08:14:14;;;;;;;27.4;24.6;;;;;;;6.9;89.76367;968.2292;;;;
2019/10/30 08:16:39;;;;;;;25.1;22.6;;;;;;;6.94;88.84668;968.2131;;;;
2019/10/30 08:19:04;;;;;;;25.2;22.6;;;;;;;7.04;88.51367;968.2464;;;;
2019/10/30 08:21:30;;;;;;;26.3;23.6;;;;;;;6.8;89.47852;968.1896;;;;
2019/10/30 08:23:55;;;;;;;26.1;22.8;;;;;;;6.63;88.62207;968.2009;;;;
2019/10/30 08:26:20;;;;;;;25.6;23;;;;;;;6.83;88.93652;968.204;;;;
2019/10/30 08:28:45;;;;;;;24.5;22.1;;;;;;;6.97;88.55566;968.1736;;;;
2019/10/30 08:31:10;;;;;;;23.4;21.1;;;;;;;7.1;87.41699;968.2216;;;;
2019/10/30 08:33:35;;;;;;;25.8;23.1;;;;;;;6.82;88.88965;968.1994;;;;
2019/10/30 08:36:00;;;;;;;23.9;21.4;;;;;;;6.95;87.86914;968.1484;;;;
2019/10/30 08:38:25;;;;;;;24;21.5;;;;;;;6.86;87.6543;968.2339;;;;
2019/10/30 08:40:50;;;;;;;23.2;20.8;;;;;;;6.96;86.68359;968.1576;;;;
2019/10/30 08:43:15;;;;;;;22.8;20.4;;;;;;;7.11;86.94141;968.1638;;;;
2019/10/30 08:45:40;;;;;;;21.9;19.8;;;;;;;7.1;87.31641;968.1414;;;;
2019/10/30 08:48:05;;;;;;;23.5;21;;;;;;;7.04;86.60742;968.1863;;;;
2019/10/30 08:50:30;;;;;;;23.9;21.3;;;;;;;7.12;86.86328;968.1744;;;;
2019/10/30 08:52:55;;;;;;;24.2;21.7;;;;;;;7.18;86.87598;968.1906;;;;
2019/10/30 08:55:20;;;;;;;23.8;21.5;;;;;;;7.06;86.49609;968.2255;;;;
2019/10/30 08:57:46;;;;;;;24.7;22.2;;;;;;;7.07;87.18359;968.2413;;;;
2019/10/30 09:00:11;;;;;;;24;21.6;;;;;;;7.12;87.52539;968.21;;;;
2019/10/30 09:02:36;;;;;;;25.5;22.8;;;;;;;7.15;86.53711;968.2039;;;;
2019/10/30 09:05:01;;;;;;;24.7;22.2;;;;;;;7.11;86.24512;968.2286;;;;
2019/10/30 09:07:27;;;;;;;25.8;23.1;;;;;;;7.09;86.78906;968.2141;;;;
2019/10/30 09:14:42;;;;;;;25;22.3;;;;;;;7.02;87.09375;968.1758;;;;
2019/10/30 09:17:07;;;;;;;27.1;23.7;;;;;;;7.16;85.38574;968.1871;;;;
2019/10/30 09:19:32;;;;;;;26.2;22.9;;;;;;;7.02;86.24902;968.2372;;;;
2019/10/30 09:21:57;;;;;;;24.4;21.9;;;;;;;6.98;85.16895;968.251;;;;
2019/10/30 09:24:22;;;;;;;24.6;21.9;;;;;;;7.07;85.49316;968.238;;;;
2019/10/30 09:26:48;;;;;;;23.8;21.3;;;;;;;7.25;85.0957;968.2285;;;;
2019/10/30 09:29:13;;;;;;;23.2;20.8;;;;;;;7.19;84.60547;968.2047;;;;
2019/10/30 09:31:39;;;;;;;22.1;19.9;;;;;;;7.31;84.63965;968.2386;;;;
2019/10/30 09:34:04;;;;;;;20.7;18.5;;;;;;;7.34;83.60547;968.2067;;;;
2019/10/30 09:36:29;;;;;;;24.5;17.9;;;;;;;7.46;82.17871;968.2777;;;;
2019/10/30 09:38:54;;;;;;;20.6;17.7;;;;;;;7.46;82.54395;968.277;;;;
2019/10/30 09:41:19;;;;;;;19.7;17.7;;;;;;;7.54;81.89648;968.2235;;;;
2019/10/30 09:43:44;;;;;;;26.5;18.8;;;;;;;7.57;82.19922;968.1791;;;;
2019/10/30 09:46:09;;;;;;;22;18.8;;;;;;;7.72;81.38184;968.1808;;;;
2019/10/30 09:48:34;;;;;;;19.8;17.8;;;;;;;7.7;81.07031;968.2163;;;;
2019/10/30 09:50:59;;;;;;;19;17.1;;;;;;;7.54;80.34277;968.2541;;;;
2019/10/30 09:53:24;;;;;;;18.2;16.4;;;;;;;7.62;80.3457;968.1827;;;;
2019/10/30 09:55:49;;;;;;;19.2;17.2;;;;;;;7.47;80.80762;968.2269;;;;
2019/10/30 09:58:15;;;;;;;19.2;17.3;;;;;;;7.57;80.34766;968.1887;;;;
2019/10/30 10:00:40;;;;;;;19.7;17.7;;;;;;;7.5;81.49023;968.1911;;;;
2019/10/30 10:03:05;;;;;;;19.1;17.3;;;;;;;7.6;79.7832;968.1512;;;;
2019/10/30 10:05:31;;;;;;;18.9;17.1;;;;;;;7.7;80.2334;968.1149;;;;
2019/10/30 10:07:56;;;;;;;20.6;18.5;;;;;;;7.69;80.2793;968.0642;;;;
2019/10/30 10:10:21;;;;;;;20.5;18.4;;;;;;;7.79;80.49219;968.0394;;;;
2019/10/30 10:12:54;;;;;;;19.7;17.8;;;;;;;7.99;79.38672;968.0773;;;;
2019/10/30 10:15:12;;;;;;;19;17.1;;;;;;;7.99;77.62305;968.0837;;;;
2019/10/30 10:17:37;;;;;;;19.1;17.1;;;;;;;7.84;78.60254;968.059;;;;
2019/10/30 10:20:02;;;;;;;18.9;17;;;;;;;7.91;79.05957;968.0485;;;;
2019/10/30 10:22:27;;;;;;;20;18;;;;;;;7.96;79.28906;968.0193;;;;
2019/10/30 10:24:53;;;;;;;20.4;18.2;;;;;;;7.8;80.28809;968.0161;;;;
2019/10/30 10:27:18;;;;;;;20.4;18.3;;;;;;;8;79.62891;968.033;;;;
2019/10/30 10:29:43;;;;;;;19.6;17.5;;;;;;;8.12;79.87793;968.0364;;;;
2019/10/30 10:32:08;;;;;;;19.2;17.2;;;;;;;8.01;79.49316;967.9936;;;;
2019/10/30 10:34:34;;;;;;;20;17.7;;;;;;;7.96;80.58008;968.05;;;;
2019/10/30 10:36:59;;;;;;;20.5;18.1;;;;;;;7.81;79.10059;967.9852;;;;
2019/10/30 10:39:24;;;;;;;18.4;16.5;;;;;;;7.88;78.4502;967.9799;;;;
2019/10/30 10:41:49;;;;;;;18.5;16.6;;;;;;;7.77;78.46484;967.95;;;;
2019/10/30 10:44:14;;;;;;;18.7;16.8;;;;;;;7.79;79.34863;967.9906;;;;
2019/10/30 10:46:39;;;;;;;18;16.2;;;;;;;7.96;78.38379;968.0084;;;;
2019/10/30 10:49:04;;;;;;;19.6;16.4;;;;;;;7.9;79.33398;967.9696;;;;
2019/10/30 10:51:29;;;;;;;18.1;16.2;;;;;;;7.8;78.49316;968.0005;;;;
2019/10/30 10:53:56;;;;;;;19;17;;;;;;;7.79;78.71973;967.8844;;;;
2019/10/30 10:56:21;;;;;;;19.8;17.7;;;;;;;7.75;79.19238;967.9127;;;;
2019/10/30 10:58:46;;;;;;;19.6;17.6;;;;;;;7.7;80.14258;967.912;;;;
2019/10/30 11:01:11;;;;;;;19.8;17.4;;;;;;;7.81;79.62695;967.9163;;;;
2019/10/30 11:03:36;;;;;;;20.2;18.2;;;;;;;7.91;79.25391;967.9526;;;;
2019/10/30 11:06:01;;;;;;;18.5;16.7;;;;;;;8.18;78.05957;967.9609;;;;
2019/10/30 11:08:26;;;;;;;18.8;16.8;;;;;;;8.32;76.76758;967.8881;;;;
2019/10/30 11:10:51;;;;;;;18.6;16.6;;;;;;;8.4;76.24316;967.8362;;;;
2019/10/30 11:13:16;;;;;;;19.2;17.1;;;;;;;8.19;76.93945;967.7738;;;;
2019/10/30 11:15:42;;;;;;;17.8;16.1;;;;;;;8.19;75.98828;967.7161;;;;
2019/10/30 11:18:07;;;;;;;18.1;16.3;;;;;;;8.2;76.16113;967.7548;;;;
2019/10/30 11:20:32;;;;;;;17;15.3;;;;;;;8.27;76.78027;967.7488;;;;
2019/10/30 11:22:58;;;;;;;17.1;15.3;;;;;;;8.19;75.81641;967.6526;;;;
2019/10/30 11:25:23;;;;;;;17.4;15.6;;;;;;;8.01;75.78418;967.7068;;;;
2019/10/30 11:27:48;;;;;;;16.7;14.9;;;;;;;8.01;75.72754;967.582;;;;
2019/10/30 11:30:13;;;;;;;18.1;16.1;;;;;;;8.08;76.50684;967.6004;;;;
2019/10/30 11:32:38;;;;;;;17;15.3;;;;;;;8.04;76.35156;967.6636;;;;
2019/10/30 11:35:03;;;;;;;21.6;17.7;;;;;;;8.2;76.19531;967.6387;;;;
2019/10/30 11:37:29;;;;;;;20;17.8;;;;;;;8.38;75.17578;967.6149;;;;
2019/10/30 11:39:54;;;;;;;17.6;15.8;;;;;;;8.24;75.6543;967.6306;;;;
2019/10/30 11:42:19;;;;;;;16.8;15.1;;;;;;;8.05;75.44922;967.657;;;;
2019/10/30 11:44:44;;;;;;;16.5;14.8;;;;;;;8.1;74.85254;967.6953;;;;
2019/10/30 11:47:09;;;;;;;16.6;14.8;;;;;;;7.99;75.14063;967.6666;;;;
2019/10/30 11:49:35;;;;;;;17.4;15.5;;;;;;;7.89;76.66895;967.6161;;;;
2019/10/30 11:52:00;;;;;;;16.9;15.3;;;;;;;7.99;76.36621;967.6813;;;;
2019/10/30 11:54:25;;;;;;;16.1;14.5;;;;;;;8.14;75.09863;967.6194;;;;
2019/10/30 11:56:50;;;;;;;16.2;14.5;;;;;;;8.1;75.00098;967.6061;;;;
2019/10/30 11:59:15;;;;;;;16.1;14.5;;;;;;;8.03;74.38184;967.6487;;;;
2019/10/30 12:01:40;;;;;;;20.1;15.2;;;;;;;7.86;75.64453;967.6375;;;;
2019/10/30 12:04:05;;;;;;;16.3;14.7;;;;;;;7.74;75.77148;967.6613;;;;
2019/10/30 12:08:17;;;;;;;16.5;14.8;;;;;;;7.82;77.05664;967.6365;;;;
2019/10/30 12:09:04;;;;;;;16.4;14.3;;;;;;;8.09;74.51855;967.5962;;;;
2019/10/30 12:11:21;;;;;;;15.5;13.9;;;;;;;8.29;74.42578;967.6399;;;;
2019/10/30 12:13:46;;;;;;;15.2;13.7;;;;;;;8.37;73.07813;967.5975;;;;
2019/10/30 12:16:11;;;;;;;15.6;13.9;;;;;;;8.17;74.71582;967.5978;;;;
2019/10/30 12:18:36;;;;;;;16.6;15;;;;;;;8.09;75.89063;967.5692;;;;
2019/10/30 12:21:01;;;;;;;16.8;15.1;;;;;;;8.03;75.60449;967.6111;;;;
2019/10/30 12:23:26;;;;;;;17.1;15.3;;;;;;;7.79;77.25586;967.5347;;;;
2019/10/30 12:25:51;;;;;;;17.8;16.1;;;;;;;7.77;78.08789;967.568;;;;
2019/10/30 12:28:16;;;;;;;18.2;16.2;;;;;;;7.81;77.47461;967.5173;;;;
2019/10/30 12:30:41;;;;;;;18.2;16.3;;;;;;;7.78;78.49902;967.4564;;;;
2019/10/30 12:33:06;;;;;;;18;16.2;;;;;;;7.91;77.74609;967.4553;;;;
2019/10/30 12:35:32;;;;;;;17.9;16.2;;;;;;;7.82;78.25586;967.4514;;;;
2019/10/30 12:37:57;;;;;;;16.7;14.9;;;;;;;7.77;77.89355;967.4615;;;;
2019/10/30 12:40:22;;;;;;;16.7;15;;;;;;;7.91;77.81445;967.47;;;;
2019/10/30 12:42:47;;;;;;;16.9;15.3;;;;;;;7.86;78.06934;967.4289;;;;
2019/10/30 12:45:12;;;;;;;17;15.3;;;;;;;7.89;77.87988;967.4105;;;;
2019/10/30 12:47:38;;;;;;;17.3;15.6;;;;;;;7.85;79.49805;967.3636;;;;
2019/10/30 12:50:02;;;;;;;16.6;15;;;;;;;7.76;79.14941;967.3558;;;;
2019/10/30 12:52:28;;;;;;;17;15.3;;;;;;;7.7;78.96484;967.3449;;;;
2019/10/30 12:54:53;;;;;;;17.1;15.4;;;;;;;7.77;78.78516;967.2977;;;;
2019/10/30 12:57:18;;;;;;;16.6;14.9;;;;;;;7.92;79.48633;967.2453;;;;
2019/10/30 12:59:43;;;;;;;17.9;16;;;;;;;7.87;79.50293;967.2081;;;;
2019/10/30 13:02:08;;;;;;;16.9;15.2;;;;;;;7.77;79.00293;967.198;;;;
2019/10/30 13:04:33;;;;;;;15.8;14.3;;;;;;;7.77;78.23633;967.1403;;;;
2019/10/30 13:06:58;;;;;;;15.2;13.6;;;;;;;7.62;76.93848;967.1858;;;;
2019/10/30 13:09:24;;;;;;;14.6;13.2;;;;;;;7.78;76.64648;967.17;;;;
2019/10/30 13:11:49;;;;;;;14.2;12.7;;;;;;;7.63;76.09375;967.1429;;;;
2019/10/30 13:14:14;;;;;;;14.9;13.4;;;;;;;7.58;77.61719;967.1728;;;;
2019/10/30 13:16:39;;;;;;;15.2;13.7;;;;;;;7.44;77.67188;967.1423;;;;
2019/10/30 13:19:05;;;;;;;16.4;14.1;;;;;;;7.36;77.48535;967.1147;;;;
2019/10/30 13:21:30;;;;;;;22.7;19.6;;;;;;;7.45;77.53809;967.0948;;;;
2019/10/30 13:23:55;;;;;;;24.3;21;;;;;;;7.53;76.59277;967.1656;;;;
2019/10/30 13:26:20;;;;;;;23.2;20.1;;;;;;;7.32;78.10938;967.1592;;;;
2019/10/30 13:28:45;;;;;;;18.6;16.6;;;;;;;7.32;78.97754;967.1373;;;;
2019/10/30 13:31:10;;;;;;;17.3;15.5;;;;;;;7.44;78.76855;967.118;;;;
2019/10/30 13:33:36;;;;;;;16.9;15.2;;;;;;;7.5;78.4375;967.0938;;;;
2019/10/30 13:36:01;;;;;;;16.7;15;;;;;;;7.52;78.56738;967.1664;;;;
2019/10/30 13:38:26;;;;;;;16.5;14.9;;;;;;;7.52;78.76172;967.1404;;;;
2019/10/30 13:40:51;;;;;;;17.4;15.6;;;;;;;7.24;78.96094;967.1619;;;;
2019/10/30 13:43:16;;;;;;;17.2;15.4;;;;;;;7.18;79.44238;967.0997;;;;
2019/10/30 13:45:42;;;;;;;16.8;15.1;;;;;;;7.21;79.75488;967.0936;;;;
2019/10/30 13:48:07;;;;;;;16.2;14.6;;;;;;;7.24;78.21875;967.1155;;;;
2019/10/30 13:50:32;;;;;;;16.5;15;;;;;;;7.2;78.56543;967.1028;;;;
2019/10/30 13:52:57;;;;;;;16.5;14.9;;;;;;;7.18;79.9668;967.0219;;;;
2019/10/30 13:55:22;;;;;;;15.9;14.4;;;;;;;7.33;78.64551;967.0304;;;;
2019/10/30 13:57:47;;;;;;;16.9;15.2;;;;;;;7.34;79.76855;967.0644;;;;
2019/10/30 14:00:13;;;;;;;16.5;14.9;;;;;;;7.36;80.36621;966.9738;;;;
2019/10/30 14:02:38;;;;;;;16.4;14.9;;;;;;;7.3;79.32813;966.9728;;;;
2019/10/30 14:05:07;;;;;;;16.8;15.1;;;;;;;7.3;79.84082;966.9578;;;;
2019/10/30 14:07:28;;;;;;;16.3;14.7;;;;;;;7.3;81.00586;966.907;;;;